Swift Current Airport
CYYN : now visible

Airfield :











YOU CAN JOIN US ON...

 
LOGIN :

Register | Disclaimer

   EN    FR    IT 

 









Legend :    VFR   Marginal VFR   IFR   Intensive IFR   Very Intensive IFR
Visi :
Ceiling :
>= 8 km
>= 3000ft
5 to 8 km
1000 to 3000 ft
1500m to 5 km
500 to 1000 ft
800 to 1500m
200 to 500 ft
< 800m
< 200 ft
Symbols :   Thunderstorms  Fog  Heavy snow  Heavy precipitations  Wind > 20 kt







- Airport Elevation : 2680 ft
- IATA code : YYN


CYYN - Swift Current

CURRENT METAR :
  • 260200Z AUTO 30003KT 9SM BKN095 BKN110 14/10 A2986 RMK SLP115 DENSITY ALT 3200FT

EXPIRED METARs :
  • 260120Z AUTO 36003KT 9SM BKN090 OVC120 15/09 A2984 RMK SLP108 DENSITY ALT 3400FT
  • 260043Z AUTO 36015G21KT 9SM FEW060 OVC100 17/11 A2984 RMK LTNG DIST NE E SW SLP107 DENSITY ALT 3500FT
  • 260037Z AUTO 35016G22KT 9SM VCTS FEW060 SCT079 OVC100 16/11 A2984 RMK LTNG DIST ALQDS SLP108 DENSITY ALT 3500FT
  • 260019Z AUTO 34018G29KT 9SM -RA VCTS FEW055 BKN084 BKN130 BKN150 16/11 A2983 RMK LTNG DIST ALQDS SLP104 DENSITY ALT 3500FT
  • 260011Z AUTO 33019G29KT 9SM VCTS SCT055 SCT079 SCT150 17/09 A2982 RMK LTNG DIST N SW SLP102 DENSITY ALT 3600FT
  • 260007Z AUTO 31018G26KT 9SM SCT055 18/09 A2982 RMK LTNG DIST N SLP100 DENSITY ALT 3700FT

TAF TAF CYYN
Valid from the 26 at 00:00 until the 26 at 12:00 UTC


252338Z 2600/2612 33012KT P6SM FEW050
TEMPO 2600/2606 P6SM -SHRA VCTS BKN050CB
FM260600 28012KT P6SM SCT050 RMK FCST BASED ON AUTO OBS. NXT FCST BY 260600Z
No reported NOTAMs for that airfield.



MET'MAP, your aeronautical weather chart ! - Copyright ORBIFLY December 2007 - Disclaimer

ORBIFLY MET'MAP TEAM :

Programming & Development : Alexandra Zaïnal
Concept & Development : Baudouin d'Aumeries
Co-Development & Prog : Marc-Olivier Méhu
Technical & hardware support : Manuel Goepfert

Contact : metmap@orbifly.com




SOURCES & CREDITS :

   NOAA       Earth
Advisory